Aviation Digital Data Service (ADDS)

Output produced by METARs form (0145 UTC 15 August 2020)
found at http://www.aviationweather.gov/metar/data/
 
METAR text: LFPO 150130Z 31004KT CAVOK 19/18 Q1015 NOSIG
Conditions at: LFPO (PARIS/ORLY , FR) observed 0130 UTC 15 August 2020
Temperature: 19.0°C (66°F)
Dewpoint: 18.0°C (64°F) [RH = 94%]
Pressure (altimeter): 29.97 inches Hg (1015.0 mb)
Winds: from the NW (310 degrees) at 5 MPH (4 knots; 2.1 m/s)
Visibility: 6 or more miles (10+ km)
Ceiling: ceiling and visibility are OK
Clouds: unknown
Weather: no significant weather observed at this time

METAR text: LFPO 150100Z 27003KT CAVOK 19/18 Q1015 NOSIG
Conditions at: LFPO (PARIS/ORLY , FR) observed 0100 UTC 15 August 2020
Temperature: 19.0°C (66°F)
Dewpoint: 18.0°C (64°F) [RH = 94%]
Pressure (altimeter): 29.97 inches Hg (1015.0 mb)
Winds: from the W (270 degrees) at 3 MPH (3 knots; 1.5 m/s)
Visibility: 6 or more miles (10+ km)
Ceiling: ceiling and visibility are OK
Clouds: unknown
Weather: no significant weather observed at this time

METAR text: LFPO 150030Z 31003KT CAVOK 19/18 Q1015 NOSIG
Conditions at: LFPO (PARIS/ORLY , FR) observed 0030 UTC 15 August 2020
Temperature: 19.0°C (66°F)
Dewpoint: 18.0°C (64°F) [RH = 94%]
Pressure (altimeter): 29.97 inches Hg (1015.0 mb)
Winds: from the NW (310 degrees) at 3 MPH (3 knots; 1.5 m/s)
Visibility: 6 or more miles (10+ km)
Ceiling: ceiling and visibility are OK
Clouds: unknown
Weather: no significant weather observed at this time

METAR text: LFPO 150000Z 28004KT 9999 FEW020 SCT033 19/18 Q1015 NOSIG
Conditions at: LFPO (PARIS/ORLY , FR) observed 0000 UTC 15 August 2020
Temperature: 19.0°C (66°F)
Dewpoint: 18.0°C (64°F) [RH = 94%]
Pressure (altimeter): 29.97 inches Hg (1015.0 mb)
Winds: from the W (280 degrees) at 5 MPH (4 knots; 2.1 m/s)
Visibility: 6 or more miles (10+ km)
Ceiling: at least 12,000 feet AGL
Clouds: few clouds at 2000 feet AGL
scattered clouds at 3300 feet AGL
Weather: no significant weather observed at this time

METAR text: LFPO 142330Z 29004KT 9999 FEW035 SCT060 20/18 Q1015 NOSIG
Conditions at: LFPO (PARIS/ORLY , FR) observed 2330 UTC 14 August 2020
Temperature: 20.0°C (68°F)
Dewpoint: 18.0°C (64°F) [RH = 88%]
Pressure (altimeter): 29.97 inches Hg (1015.0 mb)
Winds: from the WNW (290 degrees) at 5 MPH (4 knots; 2.1 m/s)
Visibility: 6 or more miles (10+ km)
Ceiling: at least 12,000 feet AGL
Clouds: few clouds at 3500 feet AGL
scattered clouds at 6000 feet AGL
Weather: no significant weather observed at this time

METAR text: LFPO 142300Z 28004KT 9999 BKN035 20/18 Q1016 NOSIG
Conditions at: LFPO (PARIS/ORLY , FR) observed 2300 UTC 14 August 2020
Temperature: 20.0°C (68°F)
Dewpoint: 18.0°C (64°F) [RH = 88%]
Pressure (altimeter): 30.00 inches Hg (1016.0 mb)
Winds: from the W (280 degrees) at 5 MPH (4 knots; 2.1 m/s)
Visibility: 6 or more miles (10+ km)
Ceiling: 3500 feet AGL
Clouds: broken clouds at 3500 feet AGL
Weather: no significant weather observed at this time

METAR text: LFPO 142230Z 27003KT 9999 BKN035 20/18 Q1016 NOSIG
Conditions at: LFPO (PARIS/ORLY , FR) observed 2230 UTC 14 August 2020
Temperature: 20.0°C (68°F)
Dewpoint: 18.0°C (64°F) [RH = 88%]
Pressure (altimeter): 30.00 inches Hg (1016.0 mb)
Winds: from the W (270 degrees) at 3 MPH (3 knots; 1.5 m/s)
Visibility: 6 or more miles (10+ km)
Ceiling: 3500 feet AGL
Clouds: broken clouds at 3500 feet AGL
Weather: no significant weather observed at this time

METAR text: LFPO 142200Z 26003KT 9999 FEW031 SCT260 20/18 Q1016 NOSIG
Conditions at: LFPO (PARIS/ORLY , FR) observed 2200 UTC 14 August 2020
Temperature: 20.0°C (68°F)
Dewpoint: 18.0°C (64°F) [RH = 88%]
Pressure (altimeter): 30.00 inches Hg (1016.0 mb)
Winds: from the W (260 degrees) at 3 MPH (3 knots; 1.5 m/s)
Visibility: 6 or more miles (10+ km)
Ceiling: at least 12,000 feet AGL
Clouds: few clouds at 3100 feet AGL
scattered clouds at 26000 feet AGL
Weather: no significant weather observed at this time

METAR text: LFPO 142130Z 27004KT CAVOK 20/19 Q1015 NOSIG
Conditions at: LFPO (PARIS/ORLY , FR) observed 2130 UTC 14 August 2020
Temperature: 20.0°C (68°F)
Dewpoint: 19.0°C (66°F) [RH = 94%]
Pressure (altimeter): 29.97 inches Hg (1015.0 mb)
Winds: from the W (270 degrees) at 5 MPH (4 knots; 2.1 m/s)
Visibility: 6 or more miles (10+ km)
Ceiling: ceiling and visibility are OK
Clouds: unknown
Weather: no significant weather observed at this time

METAR text: LFPO 142100Z 27002KT 9999 FEW046 20/18 Q1015 NOSIG
Conditions at: LFPO (PARIS/ORLY , FR) observed 2100 UTC 14 August 2020
Temperature: 20.0°C (68°F)
Dewpoint: 18.0°C (64°F) [RH = 88%]
Pressure (altimeter): 29.97 inches Hg (1015.0 mb)
Winds: from the W (270 degrees) at 2 MPH (2 knots; 1.0 m/s)
Visibility: 6 or more miles (10+ km)
Ceiling: at least 12,000 feet AGL
Clouds: few clouds at 4600 feet AGL
Weather: no significant weather observed at this time

METAR text: LFPO 142030Z 27003KT 9999 FEW031 BKN120 20/19 Q1015 NOSIG
Conditions at: LFPO (PARIS/ORLY , FR) observed 2030 UTC 14 August 2020
Temperature: 20.0°C (68°F)
Dewpoint: 19.0°C (66°F) [RH = 94%]
Pressure (altimeter): 29.97 inches Hg (1015.0 mb)
Winds: from the W (270 degrees) at 3 MPH (3 knots; 1.5 m/s)
Visibility: 6 or more miles (10+ km)
Ceiling: 12000 feet AGL
Clouds: few clouds at 3100 feet AGL
broken clouds at 12000 feet AGL
Weather: no significant weather observed at this time

METAR text: LFPO 142000Z 29005KT 9999 SCT031 BKN120 21/19 Q1015 NOSIG
Conditions at: LFPO (PARIS/ORLY , FR) observed 2000 UTC 14 August 2020
Temperature: 21.0°C (70°F)
Dewpoint: 19.0°C (66°F) [RH = 88%]
Pressure (altimeter): 29.97 inches Hg (1015.0 mb)
Winds: from the WNW (290 degrees) at 6 MPH (5 knots; 2.6 m/s)
Visibility: 6 or more miles (10+ km)
Ceiling: 12000 feet AGL
Clouds: scattered clouds at 3100 feet AGL
broken clouds at 12000 feet AGL
Weather: no significant weather observed at this time

METAR text: LFPO 141930Z 28003KT 240V300 9999 FEW036 SCT041 BKN140 21/19 Q1015 NOSIG
Conditions at: LFPO (PARIS/ORLY , FR) observed 1930 UTC 14 August 2020
Temperature: 21.0°C (70°F)
Dewpoint: 19.0°C (66°F) [RH = 88%]
Pressure (altimeter): 29.97 inches Hg (1015.0 mb)
Winds: from the W (280 degrees) at 3 MPH (3 knots; 1.5 m/s)
Visibility: 6 or more miles (10+ km)
Ceiling: 14000 feet AGL
Clouds: few clouds at 3600 feet AGL
scattered clouds at 4100 feet AGL
broken clouds at 14000 feet AGL
Weather: no significant weather observed at this time

METAR text: LFPO 141900Z 28003KT 9999 FEW036TCU SCT041 BKN140 21/19 Q1015 NOSIG
Conditions at: LFPO (PARIS/ORLY , FR) observed 1900 UTC 14 August 2020
Temperature: 21.0°C (70°F)
Dewpoint: 19.0°C (66°F) [RH = 88%]
Pressure (altimeter): 29.97 inches Hg (1015.0 mb)
Winds: from the W (280 degrees) at 3 MPH (3 knots; 1.5 m/s)
Visibility: 6 or more miles (10+ km)
Ceiling: 14000 feet AGL
Clouds: few clouds at 3600 feet AGL
scattered clouds at 4100 feet AGL
broken clouds at 14000 feet AGL
Weather: no significant weather observed at this time

METAR text: LFPO 141830Z 27005KT 9999 FEW036CB SCT041 BKN140 21/19 Q1015 RETS TEMPO 2500 TSRA SCT030CB
Conditions at: LFPO (PARIS/ORLY , FR) observed 1830 UTC 14 August 2020
Temperature: 21.0°C (70°F)
Dewpoint: 19.0°C (66°F) [RH = 88%]
Pressure (altimeter): 29.97 inches Hg (1015.0 mb)
Winds: from the W (270 degrees) at 6 MPH (5 knots; 2.6 m/s)
Visibility: 6 or more miles (10+ km)
Ceiling: 14000 feet AGL
Clouds: few clouds at 3600 feet AGL
scattered clouds at 4100 feet AGL
broken clouds at 14000 feet AGL
Weather: no significant weather observed at this time

METAR text: LFPO 141800Z 23005KT 9999 TSRA SCT036CB SCT041TCU BKN140 20/18 Q1014 TEMPO 2500 TSRA SCT030CB
Conditions at: LFPO (PARIS/ORLY , FR) observed 1800 UTC 14 August 2020
Temperature: 20.0°C (68°F)
Dewpoint: 18.0°C (64°F) [RH = 88%]
Pressure (altimeter): 29.94 inches Hg (1014.0 mb)
Winds: from the SW (230 degrees) at 6 MPH (5 knots; 2.6 m/s)
Visibility: 6 or more miles (10+ km)
Ceiling: 14000 feet AGL
Clouds: scattered clouds at 3600 feet AGL
scattered clouds at 4100 feet AGL
broken clouds at 14000 feet AGL
Weather: TSRA  (rain associated with thunderstorm(s))

METAR text: LFPO 141730Z 27005KT 210V320 6000 R25/1300D R07/1200U R24/0700D -SHRA SCT036CB SCT041TCU BKN140 23/18 Q1014 TEMPO 2500 TSRA SCT030CB
Conditions at: LFPO (PARIS/ORLY , FR) observed 1730 UTC 14 August 2020
Temperature: 23.0°C (73°F)
Dewpoint: 18.0°C (64°F) [RH = 73%]
Pressure (altimeter): 29.94 inches Hg (1014.0 mb)
Winds: from the W (270 degrees) at 6 MPH (5 knots; 2.6 m/s)
Visibility: 4 miles ( 6 km)
Ceiling: 14000 feet AGL
Clouds: scattered clouds at 3600 feet AGL
scattered clouds at 4100 feet AGL
broken clouds at 14000 feet AGL
Weather: -SHRA  (light rain showers)

METAR text: LFPO 141700Z 24006KT 9999 VCTS FEW036CB SCT041TCU BKN140 25/17 Q1014 TEMPO 2500 TSRA SCT030CB
Conditions at: LFPO (PARIS/ORLY , FR) observed 1700 UTC 14 August 2020
Temperature: 25.0°C (77°F)
Dewpoint: 17.0°C (63°F) [RH = 61%]
Pressure (altimeter): 29.94 inches Hg (1014.0 mb)
Winds: from the WSW (240 degrees) at 7 MPH (6 knots; 3.1 m/s)
Visibility: 6 or more miles (10+ km)
Ceiling: 14000 feet AGL
Clouds: few clouds at 3600 feet AGL
scattered clouds at 4100 feet AGL
broken clouds at 14000 feet AGL
Weather: VCTS  (thunderstorm in vicinity)

METAR text: LFPO 141630Z 22008KT 9999 FEW036CB FEW041TCU BKN140 25/17 Q1014 TEMPO 2500 TSRA SCT030CB
Conditions at: LFPO (PARIS/ORLY , FR) observed 1630 UTC 14 August 2020
Temperature: 25.0°C (77°F)
Dewpoint: 17.0°C (63°F) [RH = 61%]
Pressure (altimeter): 29.94 inches Hg (1014.0 mb)
Winds: from the SW (220 degrees) at 9 MPH (8 knots; 4.1 m/s)
Visibility: 6 or more miles (10+ km)
Ceiling: 14000 feet AGL
Clouds: few clouds at 3600 feet AGL
few clouds at 4100 feet AGL
broken clouds at 14000 feet AGL
Weather: no significant weather observed at this time

METAR text: LFPO 141600Z 21009KT 170V270 9999 FEW040CB FEW041TCU SCT280 26/17 Q1014 TEMPO 4000 -SHRA SCT030CB
Conditions at: LFPO (PARIS/ORLY , FR) observed 1600 UTC 14 August 2020
Temperature: 26.0°C (79°F)
Dewpoint: 17.0°C (63°F) [RH = 58%]
Pressure (altimeter): 29.94 inches Hg (1014.0 mb)
Winds: from the SSW (210 degrees) at 10 MPH (9 knots; 4.6 m/s)
Visibility: 6 or more miles (10+ km)
Ceiling: at least 12,000 feet AGL
Clouds: few clouds at 4000 feet AGL
few clouds at 4100 feet AGL
scattered clouds at 28000 feet AGL
Weather: no significant weather observed at this time

METAR text: LFPO 141530Z 22010KT 170V260 9999 FEW040CB FEW041TCU SCT140 26/17 Q1014 TEMPO 4000 -SHRA SCT020CB
Conditions at: LFPO (PARIS/ORLY , FR) observed 1530 UTC 14 August 2020
Temperature: 26.0°C (79°F)
Dewpoint: 17.0°C (63°F) [RH = 58%]
Pressure (altimeter): 29.94 inches Hg (1014.0 mb)
Winds: from the SW (220 degrees) at 12 MPH (10 knots; 5.1 m/s)
Visibility: 6 or more miles (10+ km)
Ceiling: at least 12,000 feet AGL
Clouds: few clouds at 4000 feet AGL
few clouds at 4100 feet AGL
scattered clouds at 14000 feet AGL
Weather: no significant weather observed at this time

METAR text: LFPO 141500Z 22009KT 190V250 9999 FEW038CB FEW040TCU SCT140 26/17 Q1014 TEMPO 4000 -SHRA SCT020CB
Conditions at: LFPO (PARIS/ORLY , FR) observed 1500 UTC 14 August 2020
Temperature: 26.0°C (79°F)
Dewpoint: 17.0°C (63°F) [RH = 58%]
Pressure (altimeter): 29.94 inches Hg (1014.0 mb)
Winds: from the SW (220 degrees) at 10 MPH (9 knots; 4.6 m/s)
Visibility: 6 or more miles (10+ km)
Ceiling: at least 12,000 feet AGL
Clouds: few clouds at 3800 feet AGL
few clouds at 4000 feet AGL
scattered clouds at 14000 feet AGL
Weather: no significant weather observed at this time

METAR text: LFPO 141430Z 23007KT 190V260 9999 FEW036CB FEW038TCU SCT280 26/16 Q1014 TEMPO 4000 -SHRA SCT020CB
Conditions at: LFPO (PARIS/ORLY , FR) observed 1430 UTC 14 August 2020
Temperature: 26.0°C (79°F)
Dewpoint: 16.0°C (61°F) [RH = 54%]
Pressure (altimeter): 29.94 inches Hg (1014.0 mb)
Winds: from the SW (230 degrees) at 8 MPH (7 knots; 3.6 m/s)
Visibility: 6 or more miles (10+ km)
Ceiling: at least 12,000 feet AGL
Clouds: few clouds at 3600 feet AGL
few clouds at 3800 feet AGL
scattered clouds at 28000 feet AGL
Weather: no significant weather observed at this time

METAR text: LFPO 141400Z 24008KT 190V290 9999 FEW035 FEW036TCU SCT130 26/17 Q1014 TEMPO 4000 -SHRA SCT020CB
Conditions at: LFPO (PARIS/ORLY , FR) observed 1400 UTC 14 August 2020
Temperature: 26.0°C (79°F)
Dewpoint: 17.0°C (63°F) [RH = 58%]
Pressure (altimeter): 29.94 inches Hg (1014.0 mb)
Winds: from the WSW (240 degrees) at 9 MPH (8 knots; 4.1 m/s)
Visibility: 6 or more miles (10+ km)
Ceiling: at least 12,000 feet AGL
Clouds: few clouds at 3500 feet AGL
few clouds at 3600 feet AGL
scattered clouds at 13000 feet AGL
Weather: no significant weather observed at this time

METAR text: LFPO 141330Z 23008KT 180V280 9999 FEW031CB FEW033TCU SCT120 26/17 Q1014 TEMPO 4000 -SHRA SCT020CB
Conditions at: LFPO (PARIS/ORLY , FR) observed 1330 UTC 14 August 2020
Temperature: 26.0°C (79°F)
Dewpoint: 17.0°C (63°F) [RH = 58%]
Pressure (altimeter): 29.94 inches Hg (1014.0 mb)
Winds: from the SW (230 degrees) at 9 MPH (8 knots; 4.1 m/s)
Visibility: 6 or more miles (10+ km)
Ceiling: at least 12,000 feet AGL
Clouds: few clouds at 3100 feet AGL
few clouds at 3300 feet AGL
scattered clouds at 12000 feet AGL
Weather: no significant weather observed at this time

METAR text: LFPO 141300Z 24008KT 180V270 9999 FEW030 FEW031TCU SCT120 26/17 Q1014 TEMPO 4000 -SHRA SCT020CB
Conditions at: LFPO (PARIS/ORLY , FR) observed 1300 UTC 14 August 2020
Temperature: 26.0°C (79°F)
Dewpoint: 17.0°C (63°F) [RH = 58%]
Pressure (altimeter): 29.94 inches Hg (1014.0 mb)
Winds: from the WSW (240 degrees) at 9 MPH (8 knots; 4.1 m/s)
Visibility: 6 or more miles (10+ km)
Ceiling: at least 12,000 feet AGL
Clouds: few clouds at 3000 feet AGL
few clouds at 3100 feet AGL
scattered clouds at 12000 feet AGL
Weather: no significant weather observed at this time

METAR text: LFPO 141230Z 24008KT 190V270 9999 FEW028 FEW030TCU SCT110 25/17 Q1014 TEMPO 4000 -SHRA SCT020CB
Conditions at: LFPO (PARIS/ORLY , FR) observed 1230 UTC 14 August 2020
Temperature: 25.0°C (77°F)
Dewpoint: 17.0°C (63°F) [RH = 61%]
Pressure (altimeter): 29.94 inches Hg (1014.0 mb)
Winds: from the WSW (240 degrees) at 9 MPH (8 knots; 4.1 m/s)
Visibility: 6 or more miles (10+ km)
Ceiling: at least 12,000 feet AGL
Clouds: few clouds at 2800 feet AGL
few clouds at 3000 feet AGL
scattered clouds at 11000 feet AGL
Weather: no significant weather observed at this time

METAR text: LFPO 141200Z 22009KT 180V240 9999 FEW026 FEW028TCU SCT110 25/17 Q1014 TEMPO 4000 -SHRA SCT020CB
Conditions at: LFPO (PARIS/ORLY , FR) observed 1200 UTC 14 August 2020
Temperature: 25.0°C (77°F)
Dewpoint: 17.0°C (63°F) [RH = 61%]
Pressure (altimeter): 29.94 inches Hg (1014.0 mb)
Winds: from the SW (220 degrees) at 10 MPH (9 knots; 4.6 m/s)
Visibility: 6 or more miles (10+ km)
Ceiling: at least 12,000 feet AGL
Clouds: few clouds at 2600 feet AGL
few clouds at 2800 feet AGL
scattered clouds at 11000 feet AGL
Weather: no significant weather observed at this time

METAR text: LFPO 141130Z 25009KT 200V280 9999 FEW023 FEW025TCU SCT040 24/18 Q1015 TEMPO 4000 -SHRA SCT020CB
Conditions at: LFPO (PARIS/ORLY , FR) observed 1130 UTC 14 August 2020
Temperature: 24.0°C (75°F)
Dewpoint: 18.0°C (64°F) [RH = 69%]
Pressure (altimeter): 29.97 inches Hg (1015.0 mb)
Winds: from the WSW (250 degrees) at 10 MPH (9 knots; 4.6 m/s)
Visibility: 6 or more miles (10+ km)
Ceiling: at least 12,000 feet AGL
Clouds: few clouds at 2300 feet AGL
few clouds at 2500 feet AGL
scattered clouds at 4000 feet AGL
Weather: no significant weather observed at this time

METAR text: LFPO 141030Z 23010KT 9999 SCT021 FEW023TCU SCT040 23/17 Q1015 TEMPO 4000 -SHRA SCT020CB
Conditions at: LFPO (PARIS/ORLY , FR) observed 1030 UTC 14 August 2020
Temperature: 23.0°C (73°F)
Dewpoint: 17.0°C (63°F) [RH = 69%]
Pressure (altimeter): 29.97 inches Hg (1015.0 mb)
Winds: from the SW (230 degrees) at 12 MPH (10 knots; 5.1 m/s)
Visibility: 6 or more miles (10+ km)
Ceiling: at least 12,000 feet AGL
Clouds: scattered clouds at 2100 feet AGL
few clouds at 2300 feet AGL
scattered clouds at 4000 feet AGL
Weather: no significant weather observed at this time

METAR text: LFPO 141000Z 23009KT 170V260 9999 SCT020 FEW021TCU SCT040 23/17 Q1015 TEMPO 4000 -SHRA SCT020CB
Conditions at: LFPO (PARIS/ORLY , FR) observed 1000 UTC 14 August 2020
Temperature: 23.0°C (73°F)
Dewpoint: 17.0°C (63°F) [RH = 69%]
Pressure (altimeter): 29.97 inches Hg (1015.0 mb)
Winds: from the SW (230 degrees) at 10 MPH (9 knots; 4.6 m/s)
Visibility: 6 or more miles (10+ km)
Ceiling: at least 12,000 feet AGL
Clouds: scattered clouds at 2000 feet AGL
few clouds at 2100 feet AGL
scattered clouds at 4000 feet AGL
Weather: no significant weather observed at this time

METAR text: LFPO 140930Z 24010KT 9999 SCT016 FEW018TCU BKN040 22/18 Q1015 TEMPO 4000 -SHRA SCT020CB
Conditions at: LFPO (PARIS/ORLY , FR) observed 0930 UTC 14 August 2020
Temperature: 22.0°C (72°F)
Dewpoint: 18.0°C (64°F) [RH = 78%]
Pressure (altimeter): 29.97 inches Hg (1015.0 mb)
Winds: from the WSW (240 degrees) at 12 MPH (10 knots; 5.1 m/s)
Visibility: 6 or more miles (10+ km)
Ceiling: 4000 feet AGL
Clouds: scattered clouds at 1600 feet AGL
few clouds at 1800 feet AGL
broken clouds at 4000 feet AGL
Weather: no significant weather observed at this time

METAR text: LFPO 140900Z 21008KT 9999 BKN016 BKN040 21/18 Q1015 TEMPO 4000 -SHRA SCT020CB
Conditions at: LFPO (PARIS/ORLY , FR) observed 0900 UTC 14 August 2020
Temperature: 21.0°C (70°F)
Dewpoint: 18.0°C (64°F) [RH = 83%]
Pressure (altimeter): 29.97 inches Hg (1015.0 mb)
Winds: from the SSW (210 degrees) at 9 MPH (8 knots; 4.1 m/s)
Visibility: 6 or more miles (10+ km)
Ceiling: 1600 feet AGL
Clouds: broken clouds at 1600 feet AGL
broken clouds at 4000 feet AGL
Weather: no significant weather observed at this time

METAR text: LFPO 140830Z 23008KT 9999 BKN015 BKN033 21/18 Q1015 NOSIG
Conditions at: LFPO (PARIS/ORLY , FR) observed 0830 UTC 14 August 2020
Temperature: 21.0°C (70°F)
Dewpoint: 18.0°C (64°F) [RH = 83%]
Pressure (altimeter): 29.97 inches Hg (1015.0 mb)
Winds: from the SW (230 degrees) at 9 MPH (8 knots; 4.1 m/s)
Visibility: 6 or more miles (10+ km)
Ceiling: 1500 feet AGL
Clouds: broken clouds at 1500 feet AGL
broken clouds at 3300 feet AGL
Weather: no significant weather observed at this time

METAR text: LFPO 140800Z 22007KT 190V250 9999 BKN011 BKN040 20/18 Q1015 NOSIG
Conditions at: LFPO (PARIS/ORLY , FR) observed 0800 UTC 14 August 2020
Temperature: 20.0°C (68°F)
Dewpoint: 18.0°C (64°F) [RH = 88%]
Pressure (altimeter): 29.97 inches Hg (1015.0 mb)
Winds: from the SW (220 degrees) at 8 MPH (7 knots; 3.6 m/s)
Visibility: 6 or more miles (10+ km)
Ceiling: 1100 feet AGL
Clouds: broken clouds at 1100 feet AGL
broken clouds at 4000 feet AGL
Weather: no significant weather observed at this time

METAR text: LFPO 140730Z 22008KT 180V250 9999 BKN009 19/17 Q1015 NOSIG
Conditions at: LFPO (PARIS/ORLY , FR) observed 0730 UTC 14 August 2020
Temperature: 19.0°C (66°F)
Dewpoint: 17.0°C (63°F) [RH = 88%]
Pressure (altimeter): 29.97 inches Hg (1015.0 mb)
Winds: from the SW (220 degrees) at 9 MPH (8 knots; 4.1 m/s)
Visibility: 6 or more miles (10+ km)
Ceiling: 900 feet AGL
Clouds: broken clouds at 900 feet AGL
Weather: no significant weather observed at this time

METAR text: LFPO 140700Z 23008KT 9999 BKN009 19/18 Q1015 NOSIG
Conditions at: LFPO (PARIS/ORLY , FR) observed 0700 UTC 14 August 2020
Temperature: 19.0°C (66°F)
Dewpoint: 18.0°C (64°F) [RH = 94%]
Pressure (altimeter): 29.97 inches Hg (1015.0 mb)
Winds: from the SW (230 degrees) at 9 MPH (8 knots; 4.1 m/s)
Visibility: 6 or more miles (10+ km)
Ceiling: 900 feet AGL
Clouds: broken clouds at 900 feet AGL
Weather: no significant weather observed at this time

METAR text: LFPO 140630Z 21007KT 9999 BKN009 19/18 Q1015 NOSIG
Conditions at: LFPO (PARIS/ORLY , FR) observed 0630 UTC 14 August 2020
Temperature: 19.0°C (66°F)
Dewpoint: 18.0°C (64°F) [RH = 94%]
Pressure (altimeter): 29.97 inches Hg (1015.0 mb)
Winds: from the SSW (210 degrees) at 8 MPH (7 knots; 3.6 m/s)
Visibility: 6 or more miles (10+ km)
Ceiling: 900 feet AGL
Clouds: broken clouds at 900 feet AGL
Weather: no significant weather observed at this time

METAR text: LFPO 140600Z 21008KT 9999 BKN008 19/17 Q1014 NOSIG
Conditions at: LFPO (PARIS/ORLY , FR) observed 0600 UTC 14 August 2020
Temperature: 19.0°C (66°F)
Dewpoint: 17.0°C (63°F) [RH = 88%]
Pressure (altimeter): 29.94 inches Hg (1014.0 mb)
Winds: from the SSW (210 degrees) at 9 MPH (8 knots; 4.1 m/s)
Visibility: 6 or more miles (10+ km)
Ceiling: 800 feet AGL
Clouds: broken clouds at 800 feet AGL
Weather: no significant weather observed at this time

METAR text: LFPO 140530Z 23008KT 8000 BKN008 BKN026 19/18 Q1014 NOSIG
Conditions at: LFPO (PARIS/ORLY , FR) observed 0530 UTC 14 August 2020
Temperature: 19.0°C (66°F)
Dewpoint: 18.0°C (64°F) [RH = 94%]
Pressure (altimeter): 29.94 inches Hg (1014.0 mb)
Winds: from the SW (230 degrees) at 9 MPH (8 knots; 4.1 m/s)
Visibility: 5 miles ( 8 km)
Ceiling: 800 feet AGL
Clouds: broken clouds at 800 feet AGL
broken clouds at 2600 feet AGL
Weather: no significant weather observed at this time

METAR text: LFPO 140500Z 20006KT 8000 SCT012 BKN026 19/18 Q1014 NOSIG
Conditions at: LFPO (PARIS/ORLY , FR) observed 0500 UTC 14 August 2020
Temperature: 19.0°C (66°F)
Dewpoint: 18.0°C (64°F) [RH = 94%]
Pressure (altimeter): 29.94 inches Hg (1014.0 mb)
Winds: from the SSW (200 degrees) at 7 MPH (6 knots; 3.1 m/s)
Visibility: 5 miles ( 8 km)
Ceiling: 2600 feet AGL
Clouds: scattered clouds at 1200 feet AGL
broken clouds at 2600 feet AGL
Weather: no significant weather observed at this time

METAR text: LFPO 140430Z 20005KT 170V230 8000 SCT007 BKN012 19/18 Q1014 NOSIG
Conditions at: LFPO (PARIS/ORLY , FR) observed 0430 UTC 14 August 2020
Temperature: 19.0°C (66°F)
Dewpoint: 18.0°C (64°F) [RH = 94%]
Pressure (altimeter): 29.94 inches Hg (1014.0 mb)
Winds: from the SSW (200 degrees) at 6 MPH (5 knots; 2.6 m/s)
Visibility: 5 miles ( 8 km)
Ceiling: 1200 feet AGL
Clouds: scattered clouds at 700 feet AGL
broken clouds at 1200 feet AGL
Weather: no significant weather observed at this time

METAR text: LFPO 140400Z 22005KT 190V250 8000 BKN006 SCT013 19/18 Q1014 TEMPO 3000 -SHRA BKN006 SCT020CB
Conditions at: LFPO (PARIS/ORLY , FR) observed 0400 UTC 14 August 2020
Temperature: 19.0°C (66°F)
Dewpoint: 18.0°C (64°F) [RH = 94%]
Pressure (altimeter): 29.94 inches Hg (1014.0 mb)
Winds: from the SW (220 degrees) at 6 MPH (5 knots; 2.6 m/s)
Visibility: 5 miles ( 8 km)
Ceiling: 600 feet AGL
Clouds: broken clouds at 600 feet AGL
scattered clouds at 1300 feet AGL
Weather: no significant weather observed at this time

METAR text: LFPO 140330Z 23006KT 8000 BKN006 19/18 Q1014 TEMPO 3000 -SHRA BKN006 SCT020CB
Conditions at: LFPO (PARIS/ORLY , FR) observed 0330 UTC 14 August 2020
Temperature: 19.0°C (66°F)
Dewpoint: 18.0°C (64°F) [RH = 94%]
Pressure (altimeter): 29.94 inches Hg (1014.0 mb)
Winds: from the SW (230 degrees) at 7 MPH (6 knots; 3.1 m/s)
Visibility: 5 miles ( 8 km)
Ceiling: 600 feet AGL
Clouds: broken clouds at 600 feet AGL
Weather: no significant weather observed at this time

METAR text: LFPO 140300Z 23006KT 9999 SCT006 19/18 Q1014 TEMPO 3000 -SHRA BKN006 SCT020CB
Conditions at: LFPO (PARIS/ORLY , FR) observed 0300 UTC 14 August 2020
Temperature: 19.0°C (66°F)
Dewpoint: 18.0°C (64°F) [RH = 94%]
Pressure (altimeter): 29.94 inches Hg (1014.0 mb)
Winds: from the SW (230 degrees) at 7 MPH (6 knots; 3.1 m/s)
Visibility: 6 or more miles (10+ km)
Ceiling: at least 12,000 feet AGL
Clouds: scattered clouds at 600 feet AGL
Weather: no significant weather observed at this time

METAR text: LFPO 140230Z 22007KT 9999 SCT007 19/18 Q1014 TEMPO 3000 -SHRA BKN006 SCT020CB
Conditions at: LFPO (PARIS/ORLY , FR) observed 0230 UTC 14 August 2020
Temperature: 19.0°C (66°F)
Dewpoint: 18.0°C (64°F) [RH = 94%]
Pressure (altimeter): 29.94 inches Hg (1014.0 mb)
Winds: from the SW (220 degrees) at 8 MPH (7 knots; 3.6 m/s)
Visibility: 6 or more miles (10+ km)
Ceiling: at least 12,000 feet AGL
Clouds: scattered clouds at 700 feet AGL
Weather: no significant weather observed at this time

METAR text: LFPO 140200Z 23009KT 9999 BKN007 SCT040 19/18 Q1013 TEMPO 3000 -SHRA BKN006 SCT020CB
Conditions at: LFPO (PARIS/ORLY , FR) observed 0200 UTC 14 August 2020
Temperature: 19.0°C (66°F)
Dewpoint: 18.0°C (64°F) [RH = 94%]
Pressure (altimeter): 29.91 inches Hg (1013.0 mb)
Winds: from the SW (230 degrees) at 10 MPH (9 knots; 4.6 m/s)
Visibility: 6 or more miles (10+ km)
Ceiling: 700 feet AGL
Clouds: broken clouds at 700 feet AGL
scattered clouds at 4000 feet AGL
Weather: no significant weather observed at this time

METAR text: LFPO 140130Z 23007KT 9999 SCT007 SCT040 19/19 Q1013 TEMPO 3000 -SHRA BKN006 SCT020CB
Conditions at: LFPO (PARIS/ORLY , FR) observed 0130 UTC 14 August 2020
Temperature: 19.0°C (66°F)
Dewpoint: 19.0°C (66°F) [RH = 100%]
Pressure (altimeter): 29.91 inches Hg (1013.0 mb)
Winds: from the SW (230 degrees) at 8 MPH (7 knots; 3.6 m/s)
Visibility: 6 or more miles (10+ km)
Ceiling: at least 12,000 feet AGL
Clouds: scattered clouds at 700 feet AGL
scattered clouds at 4000 feet AGL
Weather: no significant weather observed at this time

METAR text: LFPO 140100Z 23005KT 190V250 9999 FEW008 SCT070 19/18 Q1013 TEMPO 3000 -SHRA BKN006 SCT020CB
Conditions at: LFPO (PARIS/ORLY , FR) observed 0100 UTC 14 August 2020
Temperature: 19.0°C (66°F)
Dewpoint: 18.0°C (64°F) [RH = 94%]
Pressure (altimeter): 29.91 inches Hg (1013.0 mb)
Winds: from the SW (230 degrees) at 6 MPH (5 knots; 2.6 m/s)
Visibility: 6 or more miles (10+ km)
Ceiling: at least 12,000 feet AGL
Clouds: few clouds at 800 feet AGL
scattered clouds at 7000 feet AGL
Weather: no significant weather observed at this time

METAR text: LFPO 140030Z 24007KT CAVOK 20/18 Q1013 TEMPO 3000 -SHRA BKN006 SCT020CB
Conditions at: LFPO (PARIS/ORLY , FR) observed 0030 UTC 14 August 2020
Temperature: 20.0°C (68°F)
Dewpoint: 18.0°C (64°F) [RH = 88%]
Pressure (altimeter): 29.91 inches Hg (1013.0 mb)
Winds: from the WSW (240 degrees) at 8 MPH (7 knots; 3.6 m/s)
Visibility: 6 or more miles (10+ km)
Ceiling: ceiling and visibility are OK
Clouds: unknown
Weather: no significant weather observed at this time

METAR text: LFPO 140000Z 25010KT 9999 -RA FEW009 SCT046 BKN120 20/19 Q1013 TEMPO 3000 -SHRA BKN006 SCT020CB
Conditions at: LFPO (PARIS/ORLY , FR) observed 0000 UTC 14 August 2020
Temperature: 20.0°C (68°F)
Dewpoint: 19.0°C (66°F) [RH = 94%]
Pressure (altimeter): 29.91 inches Hg (1013.0 mb)
Winds: from the WSW (250 degrees) at 12 MPH (10 knots; 5.1 m/s)
Visibility: 6 or more miles (10+ km)
Ceiling: 12000 feet AGL
Clouds: few clouds at 900 feet AGL
scattered clouds at 4600 feet AGL
broken clouds at 12000 feet AGL
Weather: -RA  (light rain)

METAR text: LFPO 132330Z 24007KT 8000 -SHRA FEW009 SCT033CB BKN073 20/19 Q1013 TEMPO 3000 -SHRA BKN006 SCT020CB
Conditions at: LFPO (PARIS/ORLY , FR) observed 2330 UTC 13 August 2020
Temperature: 20.0°C (68°F)
Dewpoint: 19.0°C (66°F) [RH = 94%]
Pressure (altimeter): 29.91 inches Hg (1013.0 mb)
Winds: from the WSW (240 degrees) at 8 MPH (7 knots; 3.6 m/s)
Visibility: 5 miles ( 8 km)
Ceiling: 7300 feet AGL
Clouds: few clouds at 900 feet AGL
scattered clouds at 3300 feet AGL
broken clouds at 7300 feet AGL
Weather: -SHRA  (light rain showers)

METAR text: LFPO 132300Z 23008KT 9999 -SHRA SCT009 FEW033CB BKN053 20/19 Q1013 TEMPO 4000 SHRA BKN006 SCT020CB
Conditions at: LFPO (PARIS/ORLY , FR) observed 2300 UTC 13 August 2020
Temperature: 20.0°C (68°F)
Dewpoint: 19.0°C (66°F) [RH = 94%]
Pressure (altimeter): 29.91 inches Hg (1013.0 mb)
Winds: from the SW (230 degrees) at 9 MPH (8 knots; 4.1 m/s)
Visibility: 6 or more miles (10+ km)
Ceiling: 5300 feet AGL
Clouds: scattered clouds at 900 feet AGL
few clouds at 3300 feet AGL
broken clouds at 5300 feet AGL
Weather: -SHRA  (light rain showers)

METAR text: LFPO 132230Z 23007KT 9999 FEW006 FEW016CB BKN053 21/20 Q1013 TEMPO 4000 SHRA BKN006 SCT020CB
Conditions at: LFPO (PARIS/ORLY , FR) observed 2230 UTC 13 August 2020
Temperature: 21.0°C (70°F)
Dewpoint: 20.0°C (68°F) [RH = 94%]
Pressure (altimeter): 29.91 inches Hg (1013.0 mb)
Winds: from the SW (230 degrees) at 8 MPH (7 knots; 3.6 m/s)
Visibility: 6 or more miles (10+ km)
Ceiling: 5300 feet AGL
Clouds: few clouds at 600 feet AGL
few clouds at 1600 feet AGL
broken clouds at 5300 feet AGL
Weather: no significant weather observed at this time

METAR text: LFPO 132200Z 24007KT 9999 SCT006 FEW020CB BKN040 20/19 Q1013 TEMPO 4000 SHRA BKN006 SCT020CB
Conditions at: LFPO (PARIS/ORLY , FR) observed 2200 UTC 13 August 2020
Temperature: 20.0°C (68°F)
Dewpoint: 19.0°C (66°F) [RH = 94%]
Pressure (altimeter): 29.91 inches Hg (1013.0 mb)
Winds: from the WSW (240 degrees) at 8 MPH (7 knots; 3.6 m/s)
Visibility: 6 or more miles (10+ km)
Ceiling: 4000 feet AGL
Clouds: scattered clouds at 600 feet AGL
few clouds at 2000 feet AGL
broken clouds at 4000 feet AGL
Weather: no significant weather observed at this time

METAR text: LFPO 132130Z 23009KT 9999 BKN006 21/20 Q1013 TEMPO BKN006
Conditions at: LFPO (PARIS/ORLY , FR) observed 2130 UTC 13 August 2020
Temperature: 21.0°C (70°F)
Dewpoint: 20.0°C (68°F) [RH = 94%]
Pressure (altimeter): 29.91 inches Hg (1013.0 mb)
Winds: from the SW (230 degrees) at 10 MPH (9 knots; 4.6 m/s)
Visibility: 6 or more miles (10+ km)
Ceiling: 600 feet AGL
Clouds: broken clouds at 600 feet AGL
Weather: no significant weather observed at this time

METAR text: LFPO 132100Z 21010KT 9999 SCT007 BKN014 21/19 Q1012 TEMPO 4000 SHRA SCT030CB
Conditions at: LFPO (PARIS/ORLY , FR) observed 2100 UTC 13 August 2020
Temperature: 21.0°C (70°F)
Dewpoint: 19.0°C (66°F) [RH = 88%]
Pressure (altimeter): 29.88 inches Hg (1012.0 mb)
Winds: from the SSW (210 degrees) at 12 MPH (10 knots; 5.1 m/s)
Visibility: 6 or more miles (10+ km)
Ceiling: 1400 feet AGL
Clouds: scattered clouds at 700 feet AGL
broken clouds at 1400 feet AGL
Weather: no significant weather observed at this time

METAR text: LFPO 132030Z 19006KT 150V230 9999 -SHRA FEW006 BKN007 FEW020TCU 20/19 Q1012 TEMPO 4000 SHRA SCT030CB
Conditions at: LFPO (PARIS/ORLY , FR) observed 2030 UTC 13 August 2020
Temperature: 20.0°C (68°F)
Dewpoint: 19.0°C (66°F) [RH = 94%]
Pressure (altimeter): 29.88 inches Hg (1012.0 mb)
Winds: from the S (190 degrees) at 7 MPH (6 knots; 3.1 m/s)
Visibility: 6 or more miles (10+ km)
Ceiling: 700 feet AGL
Clouds: few clouds at 600 feet AGL
broken clouds at 700 feet AGL
few clouds at 2000 feet AGL
Weather: -SHRA  (light rain showers)

METAR text: LFPO 132000Z 12004KT 050V170 9999 FEW017 FEW021CB BKN028 21/19 Q1012 TEMPO 4000 SHRA SCT030CB
Conditions at: LFPO (PARIS/ORLY , FR) observed 2000 UTC 13 August 2020
Temperature: 21.0°C (70°F)
Dewpoint: 19.0°C (66°F) [RH = 88%]
Pressure (altimeter): 29.88 inches Hg (1012.0 mb)
Winds: from the ESE (120 degrees) at 5 MPH (4 knots; 2.1 m/s)
Visibility: 6 or more miles (10+ km)
Ceiling: 2800 feet AGL
Clouds: few clouds at 1700 feet AGL
few clouds at 2100 feet AGL
broken clouds at 2800 feet AGL
Weather: no significant weather observed at this time

METAR text: LFPO 131930Z VRB01KT 9999 BKN023 21/19 Q1012 TEMPO 4000 SHRA SCT030CB
Conditions at: LFPO (PARIS/ORLY , FR) observed 1930 UTC 13 August 2020
Temperature: 21.0°C (70°F)
Dewpoint: 19.0°C (66°F) [RH = 88%]
Pressure (altimeter): 29.88 inches Hg (1012.0 mb)
Winds: variable direction winds at 1 MPH (1 knots; 0.5 m/s)
Visibility: 6 or more miles (10+ km)
Ceiling: 2300 feet AGL
Clouds: broken clouds at 2300 feet AGL
Weather: no significant weather observed at this time

METAR text: LFPO 131900Z 09003KT 9999 FEW023TCU SCT025 BKN040 21/19 Q1012 NOSIG
Conditions at: LFPO (PARIS/ORLY , FR) observed 1900 UTC 13 August 2020
Temperature: 21.0°C (70°F)
Dewpoint: 19.0°C (66°F) [RH = 88%]
Pressure (altimeter): 29.88 inches Hg (1012.0 mb)
Winds: from the E (90 degrees) at 3 MPH (3 knots; 1.5 m/s)
Visibility: 6 or more miles (10+ km)
Ceiling: 4000 feet AGL
Clouds: few clouds at 2300 feet AGL
scattered clouds at 2500 feet AGL
broken clouds at 4000 feet AGL
Weather: no significant weather observed at this time

METAR text: LFPO 131830Z 12005KT 070V230 6000 -SHRA FEW010 SCT026TCU BKN040 21/19 Q1012 NOSIG
Conditions at: LFPO (PARIS/ORLY , FR) observed 1830 UTC 13 August 2020
Temperature: 21.0°C (70°F)
Dewpoint: 19.0°C (66°F) [RH = 88%]
Pressure (altimeter): 29.88 inches Hg (1012.0 mb)
Winds: from the ESE (120 degrees) at 6 MPH (5 knots; 2.6 m/s)
Visibility: 4 miles ( 6 km)
Ceiling: 4000 feet AGL
Clouds: few clouds at 1000 feet AGL
scattered clouds at 2600 feet AGL
broken clouds at 4000 feet AGL
Weather: -SHRA  (light rain showers)

METAR text: LFPO 131800Z VRB03KT 9999 FEW010 SCT026TCU BKN040 22/18 Q1012 NOSIG
Conditions at: LFPO (PARIS/ORLY , FR) observed 1800 UTC 13 August 2020
Temperature: 22.0°C (72°F)
Dewpoint: 18.0°C (64°F) [RH = 78%]
Pressure (altimeter): 29.88 inches Hg (1012.0 mb)
Winds: variable direction winds at 3 MPH (3 knots; 1.5 m/s)
Visibility: 6 or more miles (10+ km)
Ceiling: 4000 feet AGL
Clouds: few clouds at 1000 feet AGL
scattered clouds at 2600 feet AGL
broken clouds at 4000 feet AGL
Weather: no significant weather observed at this time

METAR text: LFPO 131730Z 24007KT 7000 -SHRA SCT027TCU BKN038 22/18 Q1012 NOSIG
Conditions at: LFPO (PARIS/ORLY , FR) observed 1730 UTC 13 August 2020
Temperature: 22.0°C (72°F)
Dewpoint: 18.0°C (64°F) [RH = 78%]
Pressure (altimeter): 29.88 inches Hg (1012.0 mb)
Winds: from the WSW (240 degrees) at 8 MPH (7 knots; 3.6 m/s)
Visibility: 4 miles ( 7 km)
Ceiling: 3800 feet AGL
Clouds: scattered clouds at 2700 feet AGL
broken clouds at 3800 feet AGL
Weather: -SHRA  (light rain showers)

METAR text: LFPO 131700Z 19008KT 160V220 9999 SCT027TCU BKN042 22/18 Q1012 NOSIG
Conditions at: LFPO (PARIS/ORLY , FR) observed 1700 UTC 13 August 2020
Temperature: 22.0°C (72°F)
Dewpoint: 18.0°C (64°F) [RH = 78%]
Pressure (altimeter): 29.88 inches Hg (1012.0 mb)
Winds: from the S (190 degrees) at 9 MPH (8 knots; 4.1 m/s)
Visibility: 6 or more miles (10+ km)
Ceiling: 4200 feet AGL
Clouds: scattered clouds at 2700 feet AGL
broken clouds at 4200 feet AGL
Weather: no significant weather observed at this time

METAR text: LFPO 131630Z 22007KT 180V240 9999 SCT032 BKN060 24/17 Q1012 NOSIG
Conditions at: LFPO (PARIS/ORLY , FR) observed 1630 UTC 13 August 2020
Temperature: 24.0°C (75°F)
Dewpoint: 17.0°C (63°F) [RH = 65%]
Pressure (altimeter): 29.88 inches Hg (1012.0 mb)
Winds: from the SW (220 degrees) at 8 MPH (7 knots; 3.6 m/s)
Visibility: 6 or more miles (10+ km)
Ceiling: 6000 feet AGL
Clouds: scattered clouds at 3200 feet AGL
broken clouds at 6000 feet AGL
Weather: no significant weather observed at this time

METAR text: LFPO 131600Z 20011KT 9999 SCT032 SCT060 25/17 Q1012 NOSIG
Conditions at: LFPO (PARIS/ORLY , FR) observed 1600 UTC 13 August 2020
Temperature: 25.0°C (77°F)
Dewpoint: 17.0°C (63°F) [RH = 61%]
Pressure (altimeter): 29.88 inches Hg (1012.0 mb)
Winds: from the SSW (200 degrees) at 13 MPH (11 knots; 5.7 m/s)
Visibility: 6 or more miles (10+ km)
Ceiling: at least 12,000 feet AGL
Clouds: scattered clouds at 3200 feet AGL
scattered clouds at 6000 feet AGL
Weather: no significant weather observed at this time

METAR text: LFPO 131530Z 20010KT 160V230 9999 SCT032 SCT130 25/17 Q1012 NOSIG
Conditions at: LFPO (PARIS/ORLY , FR) observed 1530 UTC 13 August 2020
Temperature: 25.0°C (77°F)
Dewpoint: 17.0°C (63°F) [RH = 61%]
Pressure (altimeter): 29.88 inches Hg (1012.0 mb)
Winds: from the SSW (200 degrees) at 12 MPH (10 knots; 5.1 m/s)
Visibility: 6 or more miles (10+ km)
Ceiling: at least 12,000 feet AGL
Clouds: scattered clouds at 3200 feet AGL
scattered clouds at 13000 feet AGL
Weather: no significant weather observed at this time

METAR text: LFPO 131500Z 19012KT 160V230 9999 FEW030 SCT130 25/17 Q1012 NOSIG
Conditions at: LFPO (PARIS/ORLY , FR) observed 1500 UTC 13 August 2020
Temperature: 25.0°C (77°F)
Dewpoint: 17.0°C (63°F) [RH = 61%]
Pressure (altimeter): 29.88 inches Hg (1012.0 mb)
Winds: from the S (190 degrees) at 14 MPH (12 knots; 6.2 m/s)
Visibility: 6 or more miles (10+ km)
Ceiling: at least 12,000 feet AGL
Clouds: few clouds at 3000 feet AGL
scattered clouds at 13000 feet AGL
Weather: no significant weather observed at this time

METAR text: LFPO 131430Z 19011KT 160V220 9999 FEW043 SCT130 25/17 Q1013 NOSIG
Conditions at: LFPO (PARIS/ORLY , FR) observed 1430 UTC 13 August 2020
Temperature: 25.0°C (77°F)
Dewpoint: 17.0°C (63°F) [RH = 61%]
Pressure (altimeter): 29.91 inches Hg (1013.0 mb)
Winds: from the S (190 degrees) at 13 MPH (11 knots; 5.7 m/s)
Visibility: 6 or more miles (10+ km)
Ceiling: at least 12,000 feet AGL
Clouds: few clouds at 4300 feet AGL
scattered clouds at 13000 feet AGL
Weather: no significant weather observed at this time

METAR text: LFPO 131400Z 16016KT 9999 FEW043 BKN130 24/17 Q1013 NOSIG
Conditions at: LFPO (PARIS/ORLY , FR) observed 1400 UTC 13 August 2020
Temperature: 24.0°C (75°F)
Dewpoint: 17.0°C (63°F) [RH = 65%]
Pressure (altimeter): 29.91 inches Hg (1013.0 mb)
Winds: from the SSE (160 degrees) at 18 MPH (16 knots; 8.2 m/s)
Visibility: 6 or more miles (10+ km)
Ceiling: 13000 feet AGL
Clouds: few clouds at 4300 feet AGL
broken clouds at 13000 feet AGL
Weather: no significant weather observed at this time

Forecast for: LFPO (PARIS/ORLY , FR)
Text: TAF LFPO 142300Z 1500/1606 25005KT CAVOK
Forecast period: 0000 to 0200 UTC 15 August 2020
Forecast type: FROM: standard forecast or significant change
Winds: from the WSW (250 degrees) at 6 MPH (5 knots; 2.6 m/s)
Visibility: 6 or more miles (10+ km)
Ceiling: unknown
Clouds: missing
Weather: NSW  (no significant weather)
Text: BECMG 1502/1504 BKN012
Forecast period: 0200 to 0700 UTC 15 August 2020
Forecast type: BECOMING: Conditions expected to become as follows by 0400 UTC 15 August 2020
Winds: from the WSW (250 degrees) at 6 MPH (5 knots; 2.6 m/s)
Visibility: 6 or more miles (10+ km)
Ceiling: 1200 feet AGL
Clouds: broken clouds at 1200 feet AGL
Weather: NSW  (no significant weather)
Text: PROB30
Forecast period: 0300 to 0700 UTC 15 August 2020
Forecast type: TEMPORARY: The following changes expected for less than half the time period
Visibility: 2.49 miles (4.01 km)
Ceiling: 800 feet AGL
Clouds: broken clouds at 800 feet AGL
Weather: BR  (mist)
Text: TEMPO 1503/1507 4000 BR BKN008
Forecast period: 0700 to 1300 UTC 15 August 2020
Forecast type: BECOMING: Conditions expected to become as follows by 1000 UTC 15 August 2020
Winds: from the WSW (250 degrees) at 6 MPH (5 knots; 2.6 m/s)
Visibility: 6 or more miles (10+ km)
Ceiling: 2500 feet AGL
Clouds: broken clouds at 2500 feet AGL
Weather: NSW  (no significant weather)
Text: BECMG 1507/1510 BKN025
Forecast period: 1300 UTC 15 August 2020 to 0600 UTC 16 August 2020
Forecast type: BECOMING: Conditions expected to become as follows by 1500 UTC 15 August 2020
Winds: from the N (10 degrees) at 6 MPH (5 knots; 2.6 m/s)
Visibility: 6 or more miles (10+ km)
Ceiling: unknown
Clouds: missing
Weather: NSW  (no significant weather)